createdAt,value
2019-04-21T00:00:39.570Z,57.70
2019-04-21T00:02:44.277Z,57.60
2019-04-21T00:04:54.992Z,58.40
2019-04-21T00:07:10.352Z,58.10
2019-04-21T00:11:18.564Z,58.20
2019-04-21T00:13:12.378Z,58.90
2019-04-21T00:15:18.091Z,59.70
2019-04-21T00:17:14.493Z,60.30
2019-04-21T00:19:22.641Z,60.80
2019-04-21T00:21:31.540Z,61.20
2019-04-21T00:23:41.289Z,61.30
2019-04-21T00:25:38.831Z,61.60
2019-04-21T00:27:46.499Z,61.60
2019-04-21T00:29:51.766Z,61.90
2019-04-21T00:31:56.035Z,62.00
2019-04-21T00:33:44.694Z,61.80
2019-04-21T00:35:52.902Z,61.60
2019-04-21T00:38:08.238Z,61.70
2019-04-21T00:40:16.168Z,61.80
2019-04-21T00:42:16.857Z,62.20
2019-04-21T00:44:11.520Z,62.00
2019-04-21T00:46:11.957Z,62.00
2019-04-21T00:48:29.960Z,62.00
2019-04-21T00:50:34.265Z,61.90
2019-04-21T00:55:01.863Z,61.90
2019-04-21T00:56:57.912Z,62.00
2019-04-21T00:58:59.288Z,62.20
2019-04-21T01:01:01.953Z,62.20
2019-04-21T01:03:13.067Z,62.30
2019-04-21T01:05:18.583Z,62.30
2019-04-21T01:07:23.128Z,63.10
2019-04-21T01:09:28.998Z,61.90
2019-04-21T01:11:31.854Z,62.00
2019-04-21T01:13:41.291Z,62.20
2019-04-21T01:15:43.932Z,62.10
2019-04-21T01:17:40.644Z,62.30
2019-04-21T01:19:48.303Z,62.00
2019-04-21T01:21:28.602Z,61.80
2019-04-21T01:23:30.028Z,61.70
2019-04-21T01:25:38.170Z,62.00
2019-04-21T01:28:06.376Z,62.40
2019-04-21T01:30:02.062Z,62.60
2019-04-21T01:32:08.572Z,63.30
2019-04-21T01:34:03.275Z,64.10
2019-04-21T01:36:03.733Z,64.80
2019-04-21T01:38:19.117Z,65.10
2019-04-21T01:40:25.675Z,65.00
2019-04-21T01:42:15.730Z,65.00
2019-04-21T01:44:24.963Z,65.10
2019-04-21T01:46:22.517Z,65.00
2019-04-21T01:48:24.121Z,65.00
2019-04-21T01:50:29.968Z,65.20
2019-04-21T01:52:47.339Z,65.40
2019-04-21T01:54:56.045Z,65.80
2019-04-21T01:56:58.504Z,66.50
2019-04-21T01:58:51.432Z,67.30
2019-04-21T02:01:03.232Z,67.90
2019-04-21T02:03:28.520Z,67.90
2019-04-21T02:05:17.207Z,67.90
2019-04-21T02:07:15.163Z,67.90
2019-04-21T02:09:14.877Z,67.70
2019-04-21T02:11:23.191Z,67.80
2019-04-21T02:13:23.248Z,67.70
2019-04-21T02:15:33.011Z,67.40
2019-04-21T02:17:28.082Z,67.20
2019-04-21T02:19:31.583Z,67.10
2019-04-21T02:21:36.864Z,67.00
2019-04-21T02:25:51.093Z,66.90
2019-04-21T02:27:57.729Z,66.70
2019-04-21T02:30:02.720Z,66.70
2019-04-21T02:32:10.627Z,67.20
2019-04-21T02:34:08.137Z,68.10
2019-04-21T02:38:23.274Z,68.50
2019-04-21T02:40:25.566Z,68.00
2019-04-21T02:42:22.248Z,68.20
2019-04-21T02:44:28.296Z,68.20
2019-04-21T02:48:39.059Z,68.60
2019-04-21T02:50:43.364Z,68.50
2019-04-21T02:56:55.055Z,68.60
2019-04-21T02:59:17.049Z,69.10
2019-04-21T03:01:25.903Z,69.60
2019-04-21T03:06:00.363Z,69.50
2019-04-21T03:10:09.473Z,69.10
2019-04-21T03:12:11.208Z,68.70
2019-04-21T03:14:24.979Z,69.10
2019-04-21T03:16:18.447Z,69.00
2019-04-21T03:20:16.998Z,69.60
2019-04-21T03:22:22.564Z,70.10
2019-04-21T03:24:18.410Z,71.00
2019-04-21T03:26:36.638Z,70.80
2019-04-21T03:28:32.432Z,71.20
2019-04-21T03:38:49.173Z,71.90
2019-04-21T03:40:47.373Z,71.70
2019-04-21T03:42:59.748Z,71.40
2019-04-21T03:45:06.965Z,71.30
2019-04-21T03:47:08.361Z,71.20
2019-04-21T03:49:04.319Z,71.30
2019-04-21T03:51:13.850Z,71.00
2019-04-21T03:57:32.418Z,70.80
2019-04-21T03:59:16.153Z,70.90
2019-04-21T04:01:32.779Z,71.60
2019-04-21T04:04:06.987Z,72.60
2019-04-21T04:06:20.645Z,72.90
2019-04-21T04:10:47.140Z,72.60
2019-04-21T04:14:44.163Z,73.20
2019-04-21T04:18:53.108Z,73.40
2019-04-21T04:20:51.235Z,73.20
2019-04-21T04:22:56.433Z,73.00
2019-04-21T04:25:04.936Z,72.50
2019-04-21T04:27:11.166Z,73.20
2019-04-21T04:29:59.426Z,73.10
2019-04-21T04:31:17.953Z,73.00
2019-04-21T04:33:21.012Z,73.00
2019-04-21T04:35:34.243Z,73.00
2019-04-21T04:37:26.322Z,72.90
2019-04-21T04:45:41.795Z,74.70
2019-04-21T04:47:47.674Z,75.60
2019-04-21T04:53:47.149Z,76.10
2019-04-21T04:55:58.855Z,76.40
2019-04-21T04:57:59.031Z,76.20
2019-04-21T05:02:11.608Z,76.20
2019-04-21T05:04:08.088Z,76.20
2019-04-21T05:08:49.365Z,76.20
2019-04-21T05:10:38.526Z,76.40
2019-04-21T05:12:33.752Z,75.10
2019-04-21T05:14:39.005Z,75.00
2019-04-21T05:16:55.735Z,75.30
2019-04-21T05:18:52.798Z,76.10
2019-04-21T05:20:52.261Z,76.80
2019-04-21T05:22:44.239Z,76.20
2019-04-21T05:24:43.993Z,75.80
2019-04-21T05:26:43.337Z,76.50
2019-04-21T05:28:44.808Z,75.80
2019-04-21T05:31:06.224Z,75.60
2019-04-21T05:33:27.566Z,75.50
2019-04-21T05:35:45.051Z,75.00
2019-04-21T05:37:56.662Z,75.90
2019-04-21T05:39:57.239Z,75.50
2019-04-21T05:41:53.756Z,75.10
2019-04-21T05:44:09.905Z,78.70
2019-04-21T05:46:13.331Z,75.10
2019-04-21T05:48:28.876Z,78.00
2019-04-21T05:50:23.850Z,79.00
2019-04-21T05:52:27.554Z,77.80
2019-04-21T05:54:38.878Z,77.70
2019-04-21T05:56:36.616Z,76.80
2019-04-21T05:58:46.630Z,76.30
2019-04-21T06:01:10.748Z,75.80
2019-04-21T06:02:57.755Z,76.60
2019-04-21T06:05:18.519Z,80.40
2019-04-21T06:07:13.242Z,78.80
2019-04-21T06:09:13.132Z,77.40
2019-04-21T06:11:23.305Z,74.70
2019-04-21T06:13:19.882Z,76.10
2019-04-21T06:15:21.356Z,77.10
2019-04-21T06:17:23.640Z,79.70
2019-04-21T06:19:35.175Z,80.90
2019-04-21T06:21:31.456Z,78.60
2019-04-21T06:23:32.759Z,79.40
2019-04-21T06:27:50.757Z,80.40
2019-04-21T06:29:46.756Z,77.60
2019-04-21T06:32:16.338Z,79.80
2019-04-21T06:38:03.783Z,79.00
2019-04-21T06:40:15.695Z,78.60
2019-04-21T06:42:22.565Z,78.40
2019-04-21T06:44:12.911Z,78.00
2019-04-21T06:46:20.089Z,77.60
2019-04-21T06:48:24.568Z,77.50
2019-04-21T06:50:22.847Z,77.40
2019-04-21T06:52:46.222Z,77.30
2019-04-21T06:54:33.916Z,77.90
2019-04-21T06:56:36.614Z,77.70
2019-04-21T06:58:35.621Z,78.70
2019-04-21T07:00:35.848Z,77.60
2019-04-21T07:04:50.116Z,76.60
2019-04-21T07:09:02.536Z,77.50
2019-04-21T07:10:59.464Z,76.50
2019-04-21T07:12:57.589Z,75.30
2019-04-21T07:15:04.028Z,74.80
2019-04-21T07:17:12.617Z,74.70
2019-04-21T07:21:13.782Z,72.40
2019-04-21T07:23:16.391Z,72.90
2019-04-21T07:25:23.270Z,72.40
2019-04-21T07:27:29.204Z,72.30
2019-04-21T07:29:34.859Z,72.00
2019-04-21T07:31:41.141Z,71.20
2019-04-21T07:33:53.946Z,71.70
2019-04-21T07:35:41.191Z,70.00
2019-04-21T07:37:40.808Z,70.50
2019-04-21T07:39:43.949Z,71.00
2019-04-21T07:41:47.106Z,70.70
2019-04-21T07:43:57.505Z,70.20
2019-04-21T07:45:58.614Z,68.90
2019-04-21T07:48:09.571Z,67.20
2019-04-21T07:50:28.584Z,67.40
2019-04-21T07:52:42.998Z,69.20
2019-04-21T07:54:49.247Z,69.20
2019-04-21T07:56:33.181Z,68.60
2019-04-21T07:58:54.704Z,69.70
2019-04-21T08:00:59.352Z,69.40
2019-04-21T08:02:58.343Z,68.00
2019-04-21T08:05:10.225Z,67.30
2019-04-21T08:07:06.319Z,67.40
2019-04-21T08:09:08.984Z,65.80
2019-04-21T08:11:01.727Z,67.00
2019-04-21T08:13:18.758Z,64.20
2019-04-21T08:15:19.501Z,62.60
2019-04-21T08:17:16.416Z,62.90
2019-04-21T08:21:30.830Z,64.10
2019-04-21T08:23:31.912Z,64.30
2019-04-21T08:25:34.923Z,63.60
2019-04-21T08:27:44.234Z,62.90
2019-04-21T08:32:03.062Z,60.90
2019-04-21T08:37:48.143Z,59.30
2019-04-21T08:40:04.443Z,59.70
2019-04-21T08:41:57.177Z,59.70
2019-04-21T08:44:02.228Z,59.30
2019-04-21T08:46:08.221Z,58.20
2019-04-21T08:48:10.243Z,57.50
2019-04-21T08:50:16.253Z,58.90
2019-04-21T08:52:34.686Z,57.60
2019-04-21T08:54:21.507Z,57.10
2019-04-21T08:56:37.195Z,57.00
2019-04-21T08:58:47.819Z,56.80
2019-04-21T09:00:57.785Z,54.40
2019-04-21T09:03:17.850Z,55.10
2019-04-21T09:05:17.553Z,55.60
2019-04-21T09:07:25.838Z,53.90
2019-04-21T09:09:25.889Z,55.30
2019-04-21T09:11:22.229Z,53.00
2019-04-21T09:13:35.113Z,54.90
2019-04-21T09:15:30.900Z,54.70
2019-04-21T09:17:34.066Z,53.50
2019-04-21T09:19:51.744Z,53.90
2019-04-21T09:21:51.617Z,52.10
2019-04-21T09:23:46.932Z,51.80
2019-04-21T09:25:52.322Z,50.70
2019-04-21T09:27:55.443Z,49.70
2019-04-21T09:29:49.203Z,51.20
2019-04-21T09:31:46.810Z,49.30
2019-04-21T09:33:50.851Z,49.00
2019-04-21T09:35:56.537Z,50.70
2019-04-21T09:38:01.023Z,51.40
2019-04-21T09:39:57.841Z,51.00
2019-04-21T09:42:02.835Z,48.80
2019-04-21T09:44:07.815Z,48.10
2019-04-21T09:46:06.709Z,49.20
2019-04-21T09:48:13.286Z,48.60
2019-04-21T09:50:12.050Z,47.80
2019-04-21T09:52:21.013Z,47.00
2019-04-21T09:54:24.944Z,47.20
2019-04-21T09:56:31.223Z,47.70
2019-04-21T09:58:32.852Z,48.10
2019-04-21T10:00:30.697Z,48.10
2019-04-21T10:02:38.776Z,47.70
2019-04-21T10:04:33.784Z,45.80
2019-04-21T10:06:35.122Z,45.10
2019-04-21T10:08:36.624Z,43.70
2019-04-21T10:10:38.374Z,45.10
2019-04-21T10:12:41.144Z,44.50
2019-04-21T10:14:43.027Z,43.10
2019-04-21T10:16:46.484Z,44.60
2019-04-21T10:18:48.199Z,43.90
2019-04-21T10:20:51.184Z,42.50
2019-04-21T10:22:53.134Z,42.40
2019-04-21T10:24:54.561Z,42.50
2019-04-21T10:26:56.071Z,43.60
2019-04-21T10:29:04.328Z,42.20
2019-04-21T10:31:00.858Z,43.60
2019-04-21T10:33:02.257Z,42.60
2019-04-21T10:35:05.496Z,41.90
2019-04-21T10:37:07.127Z,42.50
2019-04-21T10:39:11.493Z,42.10
2019-04-21T10:41:13.347Z,41.50
2019-04-21T10:43:18.949Z,40.70
2019-04-21T10:45:19.016Z,40.20
2019-04-21T10:47:20.648Z,40.20
2019-04-21T10:49:22.614Z,40.30
2019-04-21T10:51:25.289Z,39.90
2019-04-21T10:53:29.106Z,40.90
2019-04-21T10:55:44.741Z,38.70
2019-04-21T10:57:37.818Z,39.40
2019-04-21T10:59:45.684Z,38.50
2019-04-21T11:01:43.045Z,36.60
2019-04-21T11:03:53.128Z,39.10
2019-04-21T11:05:56.816Z,37.70
2019-04-21T11:08:09.020Z,40.10
2019-04-21T11:10:02.462Z,39.00
2019-04-21T11:12:04.112Z,38.20
2019-04-21T11:14:06.486Z,39.70
2019-04-21T11:16:08.897Z,36.50
2019-04-21T11:18:10.294Z,37.30
2019-04-21T11:20:12.914Z,37.80
2019-04-21T11:22:14.941Z,38.00
2019-04-21T11:24:17.833Z,36.30
2019-04-21T11:26:20.007Z,37.30
2019-04-21T11:28:22.775Z,37.10
2019-04-21T11:30:25.533Z,36.50
2019-04-21T11:32:27.385Z,36.60
2019-04-21T11:34:29.265Z,36.10
2019-04-21T11:36:31.358Z,35.70
2019-04-21T11:38:52.746Z,35.70
2019-04-21T11:40:38.086Z,35.80
2019-04-21T11:42:41.885Z,36.30
2019-04-21T11:44:44.941Z,35.30
2019-04-21T11:46:46.672Z,35.10
2019-04-21T11:48:48.378Z,35.40
2019-04-21T11:50:50.919Z,34.80
2019-04-21T11:52:52.834Z,34.30
2019-04-21T11:54:55.448Z,34.40
2019-04-21T11:56:57.044Z,33.80
2019-04-21T11:58:59.555Z,33.50
2019-04-21T12:01:03.471Z,32.70
2019-04-21T12:03:05.788Z,33.40
2019-04-21T12:05:07.579Z,33.00
2019-04-21T12:07:11.290Z,32.70
2019-04-21T12:09:12.776Z,32.70
2019-04-21T12:11:14.030Z,31.00
2019-04-21T12:13:18.281Z,32.30
2019-04-21T12:15:20.762Z,32.00
2019-04-21T12:17:22.188Z,31.70
2019-04-21T12:19:24.927Z,31.70
2019-04-21T12:21:29.386Z,31.50
2019-04-21T12:23:30.207Z,30.90
2019-04-21T12:25:40.853Z,30.90
2019-04-21T12:27:43.872Z,29.40
2019-04-21T12:29:46.108Z,30.50
2019-04-21T12:32:01.364Z,31.10
2019-04-21T12:34:05.765Z,30.10
2019-04-21T12:36:07.418Z,30.00
2019-04-21T12:38:08.907Z,29.90
2019-04-21T12:40:10.721Z,29.80
2019-04-21T12:42:14.433Z,29.60
2019-04-21T12:44:15.807Z,29.60
2019-04-21T12:46:18.104Z,29.00
2019-04-21T12:48:20.106Z,29.10
2019-04-21T12:50:21.643Z,28.60
2019-04-21T12:52:24.006Z,28.80
2019-04-21T12:54:25.889Z,28.80
2019-04-21T12:56:27.593Z,28.60
2019-04-21T12:58:29.342Z,28.60
2019-04-21T13:00:31.258Z,28.40
2019-04-21T13:02:33.780Z,28.50
2019-04-21T13:04:35.768Z,28.50
2019-04-21T13:06:37.506Z,27.90
2019-04-21T13:08:45.579Z,28.10
2019-04-21T13:10:42.362Z,26.50
2019-04-21T13:12:43.992Z,27.90
2019-04-21T13:14:45.425Z,27.70
2019-04-21T13:16:47.778Z,27.20
2019-04-21T13:18:49.285Z,26.80
2019-04-21T13:20:51.768Z,27.10
2019-04-21T13:22:54.324Z,27.70
2019-04-21T13:24:55.895Z,27.20
2019-04-21T13:26:59.777Z,27.40
2019-04-21T13:29:00.613Z,27.20
2019-04-21T13:31:02.327Z,26.00
2019-04-21T13:33:05.081Z,25.90
2019-04-21T13:35:06.989Z,27.10
2019-04-21T13:37:09.639Z,24.70
2019-04-21T13:39:52.233Z,27.40
2019-04-21T13:41:42.011Z,26.90
2019-04-21T13:43:32.977Z,26.90
2019-04-21T13:45:34.454Z,25.90
2019-04-21T13:47:36.525Z,26.90
2019-04-21T13:49:39.126Z,25.80
2019-04-21T13:51:41.597Z,26.40
2019-04-21T13:53:43.936Z,26.40
2019-04-21T13:55:46.720Z,26.30
2019-04-21T13:57:50.233Z,26.50
2019-04-21T13:59:53.121Z,25.40
2019-04-21T14:01:54.501Z,25.60
2019-04-21T14:03:55.650Z,25.90
2019-04-21T14:05:58.298Z,25.10
2019-04-21T14:08:18.891Z,25.00
2019-04-21T14:10:21.710Z,24.90
2019-04-21T14:12:23.448Z,25.10
2019-04-21T14:14:26.066Z,25.10
2019-04-21T14:16:27.342Z,25.00
2019-04-21T14:18:28.948Z,24.90
2019-04-21T14:20:31.183Z,24.60
2019-04-21T14:22:33.885Z,24.50
2019-04-21T14:24:35.199Z,24.70
2019-04-21T14:26:36.587Z,23.90
2019-04-21T14:28:38.914Z,23.10
2019-04-21T14:30:40.756Z,24.60
2019-04-21T14:32:42.126Z,24.70
2019-04-21T14:34:44.096Z,24.40
2019-04-21T14:36:46.656Z,24.40
2019-04-21T14:38:48.158Z,24.70
2019-04-21T14:40:50.332Z,24.60
2019-04-21T14:42:52.070Z,24.90
2019-04-21T14:44:54.707Z,24.70
2019-04-21T14:46:57.985Z,24.90
2019-04-21T14:49:01.351Z,24.00
2019-04-21T14:51:04.668Z,23.50
2019-04-21T14:53:08.099Z,24.00
2019-04-21T14:55:24.609Z,24.70
2019-04-21T14:57:27.300Z,24.60
2019-04-21T14:59:28.996Z,24.00
2019-04-21T15:01:31.474Z,24.50
2019-04-21T15:03:34.226Z,23.30
2019-04-21T15:05:35.660Z,24.30
2019-04-21T15:07:37.171Z,24.40
2019-04-21T15:09:39.635Z,25.00
2019-04-21T15:11:42.207Z,25.00
2019-04-21T15:13:43.990Z,24.30
2019-04-21T15:15:45.723Z,23.70
2019-04-21T15:17:47.073Z,24.50
2019-04-21T15:19:58.230Z,24.00
2019-04-21T15:21:52.625Z,24.30
2019-04-21T15:23:54.155Z,23.70
2019-04-21T15:25:56.507Z,23.50
2019-04-21T15:27:59.040Z,23.20
2019-04-21T15:30:00.703Z,24.50
2019-04-21T15:32:02.035Z,24.20
2019-04-21T15:34:03.415Z,24.20
2019-04-21T15:36:05.094Z,24.50
2019-04-21T15:38:07.606Z,24.50
2019-04-21T15:40:18.219Z,24.10
2019-04-21T15:42:12.653Z,24.10
2019-04-21T15:44:14.597Z,24.00
2019-04-21T15:46:16.215Z,23.40
2019-04-21T15:48:18.243Z,24.10
2019-04-21T15:50:21.333Z,24.40
2019-04-21T15:52:25.238Z,24.70
2019-04-21T15:54:27.261Z,23.80
2019-04-21T15:56:33.306Z,24.80
2019-04-21T15:58:39.032Z,24.70
2019-04-21T16:00:58.988Z,24.50
2019-04-21T16:03:00.473Z,24.70
2019-04-21T16:05:02.854Z,25.10
2019-04-21T16:07:05.810Z,24.40
2019-04-21T16:09:08.532Z,24.50
2019-04-21T16:11:11.353Z,24.80
2019-04-21T16:13:14.005Z,24.00
2019-04-21T16:15:16.637Z,24.50
2019-04-21T16:17:19.157Z,24.90
2019-04-21T16:19:20.574Z,24.30
2019-04-21T16:21:22.241Z,24.10
2019-04-21T16:23:24.511Z,23.80
2019-04-21T16:25:26.777Z,24.80
2019-04-21T16:27:29.517Z,24.50
2019-04-21T16:29:31.306Z,25.00
2019-04-21T16:31:34.100Z,24.60
2019-04-21T16:33:36.817Z,24.80
2019-04-21T16:35:39.967Z,24.70
2019-04-21T16:37:41.629Z,26.40
2019-04-21T16:39:43.373Z,25.60
2019-04-21T16:41:44.713Z,25.70
2019-04-21T16:43:47.123Z,26.00
2019-04-21T16:45:48.900Z,25.20
2019-04-21T16:47:53.563Z,25.80
2019-04-21T16:49:53.948Z,25.50
2019-04-21T16:52:16.237Z,26.10
2019-04-21T16:54:21.870Z,26.30
2019-04-21T16:56:31.210Z,26.20
2019-04-21T16:58:41.024Z,25.90
2019-04-21T17:00:57.346Z,27.00
2019-04-21T17:02:50.539Z,26.40
2019-04-21T17:04:52.137Z,26.70
2019-04-21T17:06:53.512Z,27.60
2019-04-21T17:08:54.804Z,28.00
2019-04-21T17:11:07.557Z,29.00
2019-04-21T17:13:00.037Z,29.60
2019-04-21T17:15:18.702Z,29.90
2019-04-21T17:17:26.808Z,31.10
2019-04-21T17:19:17.304Z,32.40
2019-04-21T17:21:13.189Z,31.10
2019-04-21T17:23:15.682Z,32.60
2019-04-21T17:25:18.516Z,33.40
2019-04-21T17:27:20.802Z,34.80
2019-04-21T17:29:22.812Z,33.60
2019-04-21T17:31:24.594Z,35.20
2019-04-21T17:33:28.304Z,34.90
2019-04-21T17:35:29.367Z,35.90
2019-04-21T17:37:32.324Z,35.60
2019-04-21T17:39:34.555Z,35.40
2019-04-21T17:41:43.432Z,36.40
2019-04-21T17:43:39.593Z,37.20
2019-04-21T17:45:41.437Z,35.70
2019-04-21T17:47:49.905Z,36.50
2019-04-21T17:49:48.765Z,38.50
2019-04-21T17:52:06.368Z,37.40
2019-04-21T17:54:17.559Z,37.80
2019-04-21T17:56:51.074Z,38.70
2019-04-21T17:58:36.025Z,38.60
2019-04-21T18:01:06.572Z,38.30
2019-04-21T18:02:51.527Z,39.20
2019-04-21T18:04:58.453Z,39.10
2019-04-21T18:06:52.876Z,38.90
2019-04-21T18:09:15.568Z,40.10
2019-04-21T18:11:10.355Z,40.70
2019-04-21T18:13:21.017Z,40.60
2019-04-21T18:15:47.058Z,39.30
2019-04-21T18:17:42.983Z,40.70
2019-04-21T18:19:47.447Z,40.70
2019-04-21T18:21:54.560Z,40.50
2019-04-21T18:24:05.721Z,40.50
2019-04-21T18:26:07.153Z,40.60
2019-04-21T18:28:02.811Z,40.90
2019-04-21T18:30:34.032Z,41.90
2019-04-21T18:32:39.165Z,41.80
2019-04-21T18:34:52.645Z,41.70
2019-04-21T18:36:49.932Z,42.00
2019-04-21T18:39:12.553Z,42.00
2019-04-21T18:41:01.435Z,42.90
2019-04-21T18:43:42.165Z,41.70
2019-04-21T18:47:31.854Z,42.40
2019-04-21T18:49:23.423Z,43.20
2019-04-21T18:51:54.192Z,43.30
2019-04-21T18:54:14.873Z,43.40
2019-04-21T18:56:05.662Z,43.30
2019-04-21T18:58:05.168Z,43.90
2019-04-21T19:00:15.391Z,43.40
2019-04-21T19:02:14.267Z,43.50
2019-04-21T19:04:20.113Z,43.70
2019-04-21T19:06:26.719Z,43.90
2019-04-21T19:08:38.926Z,43.60
2019-04-21T19:10:49.019Z,43.30
2019-04-21T19:13:16.225Z,43.60
2019-04-21T19:14:46.112Z,43.50
2019-04-21T19:17:13.860Z,43.60
2019-04-21T19:19:09.794Z,43.40
2019-04-21T19:20:53.830Z,43.90
2019-04-21T19:22:57.243Z,44.50
2019-04-21T19:25:07.282Z,44.40
2019-04-21T19:27:12.102Z,44.70
2019-04-21T19:29:19.629Z,44.30
2019-04-21T19:31:20.902Z,44.50
2019-04-21T19:33:16.048Z,44.90
2019-04-21T19:35:07.466Z,45.00
2019-04-21T19:37:13.357Z,45.50
2019-04-21T19:39:23.730Z,46.30
2019-04-21T19:41:27.999Z,46.10
2019-04-21T19:43:41.632Z,46.00
2019-04-21T19:45:33.831Z,46.10
2019-04-21T19:47:44.412Z,46.30
2019-04-21T19:49:49.972Z,46.20
2019-04-21T19:51:43.665Z,46.30
2019-04-21T19:53:48.116Z,47.10
2019-04-21T19:55:38.401Z,47.30
2019-04-21T19:57:41.050Z,47.20
2019-04-21T19:59:48.088Z,47.60
2019-04-21T20:01:48.311Z,47.30
2019-04-21T20:03:55.519Z,47.50
2019-04-21T20:06:02.151Z,48.20
2019-04-21T20:08:12.890Z,48.60
2019-04-21T20:10:25.654Z,48.80
2019-04-21T20:12:22.096Z,49.00
2019-04-21T20:14:46.739Z,49.20
2019-04-21T20:16:31.918Z,49.30
2019-04-21T20:18:24.475Z,49.30
2019-04-21T20:20:15.456Z,49.30
2019-04-21T20:22:16.892Z,49.60
2019-04-21T20:24:23.327Z,49.50
2019-04-21T20:26:33.106Z,49.70
2019-04-21T20:28:41.768Z,50.60
2019-04-21T20:30:43.782Z,50.40
2019-04-21T20:32:48.911Z,50.30
2019-04-21T20:34:55.579Z,50.40
2019-04-21T20:36:56.765Z,50.50
2019-04-21T20:38:49.056Z,50.40
2019-04-21T20:40:52.407Z,50.50
2019-04-21T20:43:09.175Z,50.70
2019-04-21T20:45:22.352Z,50.90
2019-04-21T20:47:07.795Z,50.90
2019-04-21T20:49:07.958Z,51.00
2019-04-21T20:51:18.400Z,51.20
2019-04-21T20:53:23.120Z,51.40
2019-04-21T20:55:18.670Z,51.50
2019-04-21T20:57:26.082Z,51.40
2019-04-21T20:59:30.393Z,51.40
2019-04-21T21:01:35.875Z,51.50
2019-04-21T21:03:39.323Z,51.50
2019-04-21T21:05:37.582Z,51.70
2019-04-21T21:07:50.233Z,52.10
2019-04-21T21:09:57.446Z,52.00
2019-04-21T21:12:11.357Z,52.40
2019-04-21T21:14:05.718Z,53.10
2019-04-21T21:16:10.263Z,52.70
2019-04-21T21:18:06.222Z,52.60
2019-04-21T21:20:07.428Z,52.60
2019-04-21T21:21:59.151Z,52.30
2019-04-21T21:24:10.170Z,52.40
2019-04-21T21:26:16.089Z,52.60
2019-04-21T21:28:10.411Z,52.70
2019-04-21T21:30:20.585Z,52.90
2019-04-21T21:32:30.306Z,52.80
2019-04-21T21:34:33.090Z,52.90
2019-04-21T21:36:33.587Z,52.70
2019-04-21T21:38:37.538Z,52.70
2019-04-21T21:40:38.289Z,53.00
2019-04-21T21:42:32.333Z,53.10
2019-04-21T21:44:31.907Z,53.30
2019-04-21T21:46:49.902Z,53.20
2019-04-21T21:48:51.672Z,53.30
2019-04-21T21:50:50.946Z,53.20
2019-04-21T21:52:57.550Z,53.10
2019-04-21T21:54:47.884Z,53.00
2019-04-21T21:59:01.292Z,52.90
2019-04-21T22:01:06.202Z,53.20
2019-04-21T22:03:14.962Z,53.20
2019-04-21T22:05:16.777Z,53.20
2019-04-21T22:07:16.112Z,53.40
2019-04-21T22:09:16.695Z,53.30
2019-04-21T22:11:18.108Z,53.50
2019-04-21T22:13:22.091Z,53.10
2019-04-21T22:15:26.364Z,53.90
2019-04-21T22:17:41.878Z,54.00
2019-04-21T22:19:52.319Z,54.60
2019-04-21T22:21:53.808Z,54.70
2019-04-21T22:23:47.804Z,55.40
2019-04-21T22:25:41.808Z,55.30
2019-04-21T22:27:43.446Z,55.20
2019-04-21T22:29:50.941Z,55.10
2019-04-21T22:31:48.357Z,55.20
2019-04-21T22:33:53.871Z,55.30
2019-04-21T22:36:00.188Z,55.20
2019-04-21T22:38:12.348Z,55.90
2019-04-21T22:40:13.729Z,56.60
2019-04-21T22:42:13.378Z,57.00
2019-04-21T22:44:28.599Z,57.30
2019-04-21T22:46:30.652Z,57.50
2019-04-21T22:48:32.577Z,57.40
2019-04-21T22:50:38.291Z,57.20
2019-04-21T22:52:41.472Z,57.20
2019-04-21T22:54:44.906Z,57.40
2019-04-21T22:56:57.032Z,57.70
2019-04-21T22:58:51.299Z,57.80
2019-04-21T23:00:57.115Z,58.40
2019-04-21T23:03:03.822Z,59.10
2019-04-21T23:05:02.528Z,59.20
2019-04-21T23:07:10.231Z,59.70
2019-04-21T23:09:08.804Z,59.70
2019-04-21T23:11:12.553Z,59.90
2019-04-21T23:13:19.535Z,59.50
2019-04-21T23:15:19.442Z,59.10
2019-04-21T23:17:38.873Z,59.00
2019-04-21T23:19:38.860Z,59.30
2019-04-21T23:21:48.914Z,59.40
2019-04-21T23:23:50.167Z,59.40
2019-04-21T23:25:45.918Z,59.40
2019-04-21T23:27:58.458Z,59.60
2019-04-21T23:29:58.853Z,59.40
2019-04-21T23:31:59.262Z,59.10
2019-04-21T23:33:48.317Z,59.10
2019-04-21T23:36:00.921Z,59.20
2019-04-21T23:37:58.663Z,59.20
2019-04-21T23:40:01.148Z,59.40
2019-04-21T23:42:02.363Z,59.50
2019-04-21T23:44:06.882Z,59.80
2019-04-21T23:46:11.915Z,60.20
2019-04-21T23:48:23.535Z,60.30
2019-04-21T23:50:27.727Z,60.30
2019-04-21T23:52:17.832Z,60.80
2019-04-21T23:54:20.683Z,61.30
2019-04-21T23:56:30.038Z,61.90
2019-04-21T23:58:29.977Z,63.30
